createdAt,value
2018-12-12T00:00:46.031Z,11.90
2018-12-12T00:03:14.937Z,14.23
2018-12-12T00:05:44.021Z,9.93
2018-12-12T00:08:13.485Z,10.00
2018-12-12T00:10:42.171Z,10.20
2018-12-12T00:13:10.871Z,7.47
2018-12-12T00:15:40.688Z,14.53
2018-12-12T00:18:10.009Z,9.50
2018-12-12T00:20:39.280Z,7.93
2018-12-12T00:23:08.659Z,11.00
2018-12-12T00:25:37.319Z,6.37
2018-12-12T00:28:06.444Z,9.83
2018-12-12T00:30:35.529Z,12.53
2018-12-12T00:33:04.214Z,13.30
2018-12-12T00:35:33.131Z,8.07
2018-12-12T00:38:02.120Z,8.37
2018-12-12T00:40:31.145Z,9.27
2018-12-12T00:43:00.096Z,7.73
2018-12-12T00:45:29.380Z,10.90
2018-12-12T00:47:58.500Z,7.87
2018-12-12T00:50:27.505Z,9.93
2018-12-12T00:52:56.668Z,9.37
2018-12-12T00:55:25.648Z,6.77
2018-12-12T00:57:54.878Z,5.23
2018-12-12T01:00:24.036Z,7.97
2018-12-12T01:02:53.012Z,8.33
2018-12-12T01:05:22.025Z,6.93
2018-12-12T01:07:50.995Z,12.63
2018-12-12T01:10:20.627Z,7.27
2018-12-12T01:12:49.621Z,13.13
2018-12-12T01:15:18.656Z,11.47
2018-12-12T01:17:47.607Z,9.87
2018-12-12T01:20:16.589Z,7.00
2018-12-12T01:22:45.577Z,9.13
2018-12-12T01:25:14.697Z,9.23
2018-12-12T01:27:43.660Z,8.87
2018-12-12T01:30:12.653Z,9.07
2018-12-12T01:32:41.666Z,10.30
2018-12-12T01:35:10.665Z,9.63
2018-12-12T01:37:39.652Z,12.87
2018-12-12T01:40:08.800Z,11.03
2018-12-12T01:42:37.809Z,9.43
2018-12-12T01:45:07.042Z,10.53
2018-12-12T01:47:36.100Z,10.50
2018-12-12T01:50:05.784Z,10.30
2018-12-12T01:52:34.780Z,8.20
2018-12-12T01:55:03.728Z,11.77
2018-12-12T01:57:32.692Z,12.43
2018-12-12T02:00:01.685Z,9.17
2018-12-12T02:02:30.824Z,11.27
2018-12-12T02:04:59.546Z,11.20
2018-12-12T02:07:28.400Z,9.33
2018-12-12T02:09:57.333Z,10.47
2018-12-12T02:12:26.042Z,10.20
2018-12-12T02:14:54.613Z,7.87
2018-12-12T02:17:23.573Z,7.20
2018-12-12T02:19:52.723Z,11.50
2018-12-12T02:22:21.857Z,11.53
2018-12-12T02:24:50.562Z,15.70
2018-12-12T02:27:20.051Z,10.77
2018-12-12T02:29:49.034Z,11.53
2018-12-12T02:32:18.419Z,8.87
2018-12-12T02:34:47.397Z,8.73
2018-12-12T02:37:16.387Z,13.87
2018-12-12T02:39:45.378Z,7.50
2018-12-12T02:42:14.365Z,9.60
2018-12-12T02:44:43.097Z,9.53
2018-12-12T02:47:12.070Z,9.20
2018-12-12T02:49:40.765Z,10.17
2018-12-12T02:52:09.365Z,14.70
2018-12-12T02:54:37.979Z,8.37
2018-12-12T02:57:06.889Z,10.20
2018-12-12T02:59:36.129Z,11.00
2018-12-12T03:02:05.207Z,8.70
2018-12-12T03:04:34.176Z,9.83
2018-12-12T03:07:03.210Z,14.77
2018-12-12T03:09:32.204Z,7.17
2018-12-12T03:12:01.263Z,15.90
2018-12-12T03:14:30.378Z,7.90
2018-12-12T03:16:59.351Z,7.47
2018-12-12T03:19:28.401Z,7.97
2018-12-12T03:21:57.094Z,7.67
2018-12-12T03:24:25.721Z,10.37
2018-12-12T03:26:54.622Z,9.63
2018-12-12T03:29:23.600Z,9.27
2018-12-12T03:31:52.925Z,8.60
2018-12-12T03:34:21.909Z,7.87
2018-12-12T03:36:50.901Z,7.33
2018-12-12T03:39:19.977Z,7.30
2018-12-12T03:41:48.915Z,8.83
2018-12-12T03:44:17.783Z,12.77
2018-12-12T03:46:46.899Z,5.20
2018-12-12T03:49:15.867Z,13.60
2018-12-12T03:51:45.081Z,10.03
2018-12-12T03:54:14.071Z,7.10
2018-12-12T03:56:43.409Z,9.53
2018-12-12T03:59:12.404Z,7.33
2018-12-12T04:01:41.597Z,7.90
2018-12-12T04:04:10.566Z,14.33
2018-12-12T04:06:39.462Z,12.27
2018-12-12T04:09:08.703Z,9.80
2018-12-12T04:11:37.711Z,10.13
2018-12-12T04:14:06.732Z,6.67
2018-12-12T04:16:35.735Z,8.53
2018-12-12T04:19:04.708Z,8.40
2018-12-12T04:21:33.843Z,9.37
2018-12-12T04:24:02.867Z,12.70
2018-12-12T04:26:31.867Z,7.37
2018-12-12T04:29:00.878Z,8.73
2018-12-12T04:31:30.228Z,10.87
2018-12-12T04:33:59.233Z,8.70
2018-12-12T04:36:28.292Z,7.60
2018-12-12T04:38:57.379Z,10.07
2018-12-12T04:41:26.409Z,8.43
2018-12-12T04:43:55.401Z,11.27
2018-12-12T04:46:24.399Z,12.13
2018-12-12T04:48:53.375Z,6.60
2018-12-12T04:51:22.352Z,7.63
2018-12-12T04:53:51.577Z,9.70
2018-12-12T04:56:20.577Z,5.87
2018-12-12T04:58:49.574Z,9.27
2018-12-12T05:01:18.585Z,11.67
2018-12-12T05:03:47.844Z,15.13
2018-12-12T05:06:16.850Z,9.57
2018-12-12T05:08:45.713Z,9.13
2018-12-12T05:11:14.675Z,11.37
2018-12-12T05:13:43.672Z,9.40
2018-12-12T05:16:12.661Z,12.43
2018-12-12T05:18:41.608Z,12.70
2018-12-12T05:21:10.588Z,11.27
2018-12-12T05:23:39.545Z,20.30
2018-12-12T05:26:08.462Z,11.53
2018-12-12T05:28:37.505Z,12.07
2018-12-12T05:31:06.220Z,13.33
2018-12-12T05:33:35.202Z,10.20
2018-12-12T05:36:04.166Z,17.43
2018-12-12T05:38:33.404Z,12.13
2018-12-12T05:41:02.600Z,18.17
2018-12-12T05:43:31.706Z,12.03
2018-12-12T05:46:00.716Z,14.70
2018-12-12T05:48:29.757Z,15.77
2018-12-12T05:50:58.684Z,16.90
2018-12-12T05:53:27.560Z,18.50
2018-12-12T05:56:02.503Z,22.83
2018-12-12T05:58:28.061Z,18.20
2018-12-12T06:00:57.079Z,19.63
2018-12-12T06:03:25.756Z,16.97
2018-12-12T06:05:54.864Z,16.67
2018-12-12T06:08:24.286Z,16.43
2018-12-12T06:10:52.948Z,20.43
2018-12-12T06:13:21.900Z,24.60
2018-12-12T06:15:51.020Z,14.47
2018-12-12T06:18:19.977Z,16.27
2018-12-12T06:20:48.674Z,14.60
2018-12-12T06:23:17.697Z,16.57
2018-12-12T06:25:46.700Z,17.67
2018-12-12T06:28:15.401Z,20.33
2018-12-12T06:30:44.246Z,19.37
2018-12-12T06:33:13.209Z,20.13
2018-12-12T06:35:42.184Z,21.77
2018-12-12T06:38:11.153Z,18.67
2018-12-12T06:40:40.177Z,19.47
2018-12-12T06:43:09.113Z,21.57
2018-12-12T06:45:38.128Z,19.37
2018-12-12T06:48:07.097Z,20.23
2018-12-12T06:50:36.128Z,17.70
2018-12-12T06:53:04.827Z,22.23
2018-12-12T06:55:33.753Z,20.23
2018-12-12T06:58:02.732Z,16.77
2018-12-12T07:00:31.726Z,20.00
2018-12-12T07:03:00.709Z,19.77
2018-12-12T07:05:29.609Z,25.63
2018-12-12T07:07:58.376Z,18.80
2018-12-12T07:10:26.980Z,17.57
2018-12-12T07:12:55.904Z,18.50
2018-12-12T07:15:24.919Z,20.00
2018-12-12T07:17:53.921Z,17.53
2018-12-12T07:20:22.587Z,26.03
2018-12-12T07:22:51.496Z,31.13
2018-12-12T07:25:20.471Z,21.40
2018-12-12T07:27:49.155Z,18.87
2018-12-12T07:30:17.739Z,21.27
2018-12-12T07:32:47.329Z,18.83
2018-12-12T07:35:16.289Z,21.07
2018-12-12T07:37:45.877Z,28.67
2018-12-12T07:40:14.917Z,23.47
2018-12-12T07:42:44.097Z,23.40
2018-12-12T07:45:13.261Z,23.93
2018-12-12T07:47:42.292Z,24.53
2018-12-12T07:50:11.494Z,21.17
2018-12-12T07:52:40.207Z,27.53
2018-12-12T07:55:09.274Z,22.00
2018-12-12T07:57:38.478Z,22.30
2018-12-12T08:00:08.438Z,21.67
2018-12-12T08:02:37.477Z,18.73
2018-12-12T08:05:06.713Z,20.80
2018-12-12T08:07:35.744Z,19.70
2018-12-12T08:10:05.986Z,26.13
2018-12-12T08:12:34.992Z,21.83
2018-12-12T08:15:04.457Z,21.03
2018-12-12T08:17:33.460Z,18.23
2018-12-12T08:20:02.284Z,21.23
2018-12-12T08:22:31.212Z,20.93
2018-12-12T08:24:59.928Z,24.63
2018-12-12T08:27:28.851Z,19.17
2018-12-12T08:29:57.844Z,19.50
2018-12-12T08:32:26.836Z,28.30
2018-12-12T08:34:55.579Z,20.27
2018-12-12T08:37:24.643Z,20.80
2018-12-12T08:39:53.338Z,16.70
2018-12-12T08:42:22.241Z,24.10
2018-12-12T08:44:51.246Z,18.87
2018-12-12T08:47:20.257Z,20.30
2018-12-12T08:49:49.285Z,29.53
2018-12-12T08:52:18.280Z,20.53
2018-12-12T08:54:47.263Z,20.43
2018-12-12T08:57:16.600Z,22.33
2018-12-12T08:59:46.344Z,21.93
2018-12-12T09:02:15.320Z,21.00
2018-12-12T09:04:45.218Z,21.43
2018-12-12T09:07:14.556Z,20.20
2018-12-12T09:09:43.707Z,20.53
2018-12-12T09:12:12.672Z,24.87
2018-12-12T09:14:41.682Z,26.57
2018-12-12T09:17:10.722Z,20.80
2018-12-12T09:19:39.913Z,23.27
2018-12-12T09:22:08.909Z,21.23
2018-12-12T09:24:37.958Z,16.83
2018-12-12T09:27:07.188Z,29.20
2018-12-12T09:29:36.163Z,23.00
2018-12-12T09:32:05.289Z,25.00
2018-12-12T09:34:34.045Z,21.17
2018-12-12T09:37:03.073Z,26.47
2018-12-12T09:39:32.036Z,18.30
2018-12-12T09:42:01.056Z,28.90
2018-12-12T09:44:30.205Z,18.50
2018-12-12T09:46:59.118Z,23.23
2018-12-12T09:49:28.001Z,19.53
2018-12-12T09:51:56.979Z,18.63
2018-12-12T09:54:25.970Z,24.00
2018-12-12T09:56:58.991Z,20.33
2018-12-12T09:59:28.500Z,25.50
2018-12-12T10:02:00.841Z,21.33
2018-12-12T10:04:34.703Z,27.50
2018-12-12T10:07:03.842Z,19.90
2018-12-12T10:09:33.107Z,21.80
2018-12-12T10:12:02.122Z,20.27
2018-12-12T10:14:31.394Z,24.90
2018-12-12T10:17:00.988Z,22.00
2018-12-12T10:19:29.644Z,22.13
2018-12-12T10:21:58.600Z,19.67
2018-12-12T10:24:27.948Z,18.23
2018-12-12T10:26:56.932Z,22.93
2018-12-12T10:29:25.924Z,19.07
2018-12-12T10:31:55.461Z,16.73
2018-12-12T10:34:24.452Z,23.87
2018-12-12T10:36:53.434Z,20.23
2018-12-12T10:39:22.120Z,21.33
2018-12-12T10:41:50.697Z,21.97
2018-12-12T10:44:19.305Z,21.57
2018-12-12T10:46:48.220Z,20.53
2018-12-12T10:49:17.428Z,20.10
2018-12-12T10:51:46.636Z,20.13
2018-12-12T10:54:15.333Z,20.77
2018-12-12T10:56:44.260Z,26.93
2018-12-12T10:59:13.609Z,22.03
2018-12-12T11:01:47.646Z,20.90
2018-12-12T11:04:18.501Z,25.50
2018-12-12T11:06:47.192Z,21.60
2018-12-12T11:09:16.069Z,19.67
2018-12-12T11:11:45.280Z,23.07
2018-12-12T11:14:14.288Z,24.93
2018-12-12T11:16:43.368Z,16.77
2018-12-12T11:19:12.084Z,23.57
2018-12-12T11:21:40.968Z,19.13
2018-12-12T11:24:10.218Z,24.20
2018-12-12T11:26:39.204Z,22.57
2018-12-12T11:29:08.915Z,22.07
2018-12-12T11:31:37.837Z,25.83
2018-12-12T11:34:07.194Z,18.03
2018-12-12T11:36:35.875Z,24.07
2018-12-12T11:39:06.165Z,23.47
2018-12-12T11:41:35.160Z,18.90
2018-12-12T11:44:04.321Z,23.00
2018-12-12T11:46:33.330Z,25.60
2018-12-12T11:49:02.323Z,22.63
2018-12-12T11:51:32.162Z,25.00
2018-12-12T11:54:01.291Z,21.73
2018-12-12T11:56:29.972Z,21.73
2018-12-12T11:58:58.672Z,25.30
2018-12-12T12:01:28.328Z,20.60
2018-12-12T12:03:57.041Z,24.83
2018-12-12T12:06:26.263Z,20.97
2018-12-12T12:08:55.274Z,22.30
2018-12-12T12:11:23.972Z,21.93
2018-12-12T12:13:53.858Z,20.80
2018-12-12T12:16:23.175Z,23.00
2018-12-12T12:18:52.169Z,19.90
2018-12-12T12:21:21.436Z,21.37
2018-12-12T12:23:50.442Z,21.07
2018-12-12T12:26:20.441Z,26.70
2018-12-12T12:28:49.635Z,24.07
2018-12-12T12:31:19.688Z,22.40
2018-12-12T12:33:49.999Z,22.60
2018-12-12T12:36:18.672Z,22.67
2018-12-12T12:38:47.531Z,24.50
2018-12-12T12:41:16.668Z,26.47
2018-12-12T12:43:45.652Z,21.03
2018-12-12T12:46:14.668Z,23.57
2018-12-12T12:48:43.888Z,20.87
2018-12-12T12:51:12.575Z,19.03
2018-12-12T12:53:41.383Z,22.67
2018-12-12T12:56:10.321Z,22.40
2018-12-12T12:58:39.347Z,25.23
2018-12-12T13:01:08.564Z,22.50
2018-12-12T13:03:37.233Z,27.20
2018-12-12T13:06:06.228Z,24.53
2018-12-12T13:08:35.192Z,21.63
2018-12-12T13:11:04.309Z,26.60
2018-12-12T13:13:33.142Z,23.53
2018-12-12T13:16:01.987Z,21.10
2018-12-12T13:18:31.005Z,21.73
2018-12-12T13:21:00.012Z,31.27
2018-12-12T13:23:28.695Z,21.33
2018-12-12T13:25:57.318Z,24.13
2018-12-12T13:28:26.259Z,25.90
2018-12-12T13:30:55.309Z,23.93
2018-12-12T13:33:24.288Z,26.63
2018-12-12T13:35:52.992Z,21.30
2018-12-12T13:38:22.007Z,23.63
2018-12-12T13:40:51.137Z,21.67
2018-12-12T13:43:20.148Z,22.57
2018-12-12T13:45:49.172Z,20.77
2018-12-12T13:48:18.160Z,22.67
2018-12-12T13:50:47.281Z,19.13
2018-12-12T13:53:16.580Z,22.60
2018-12-12T13:55:45.584Z,24.77
2018-12-12T13:58:14.738Z,26.63
2018-12-12T14:00:43.884Z,21.70
2018-12-12T14:03:12.547Z,30.67
2018-12-12T14:05:41.182Z,20.87
2018-12-12T14:08:10.280Z,22.10
2018-12-12T14:10:39.366Z,25.70
2018-12-12T14:13:08.388Z,22.40
2018-12-12T14:15:37.061Z,22.13
2018-12-12T14:18:05.760Z,19.03
2018-12-12T14:20:34.708Z,22.03
2018-12-12T14:23:04.653Z,23.20
2018-12-12T14:25:33.466Z,25.53
2018-12-12T14:28:02.198Z,23.57
2018-12-12T14:30:30.912Z,25.40
2018-12-12T14:32:59.820Z,21.27
2018-12-12T14:35:28.936Z,21.40
2018-12-12T14:37:59.003Z,21.70
2018-12-12T14:40:27.980Z,25.17
2018-12-12T14:42:57.016Z,21.67
2018-12-12T14:45:25.816Z,22.80
2018-12-12T14:47:54.801Z,20.90
2018-12-12T14:50:23.587Z,25.83
2018-12-12T14:52:52.243Z,19.70
2018-12-12T14:55:21.071Z,22.37
2018-12-12T14:57:50.008Z,19.90
2018-12-12T15:00:19.138Z,21.63
2018-12-12T15:02:48.149Z,21.47
2018-12-12T15:05:17.348Z,25.73
2018-12-12T15:07:46.351Z,26.03
2018-12-12T15:10:15.361Z,20.70
2018-12-12T15:12:44.544Z,25.13
2018-12-12T15:15:13.399Z,23.33
2018-12-12T15:17:42.427Z,21.27
2018-12-12T15:20:11.954Z,22.23
2018-12-12T15:22:50.316Z,24.17
2018-12-12T15:25:28.138Z,21.80
2018-12-12T15:27:57.316Z,22.57
2018-12-12T15:30:27.481Z,22.73
2018-12-12T15:33:04.648Z,21.63
2018-12-12T15:35:33.706Z,23.33
2018-12-12T15:38:02.563Z,22.83
2018-12-12T15:40:31.300Z,25.27
2018-12-12T15:43:00.907Z,23.37
2018-12-12T15:45:30.107Z,23.97
2018-12-12T15:47:59.018Z,27.50
2018-12-12T15:50:28.017Z,21.07
2018-12-12T15:52:57.019Z,27.73
2018-12-12T15:55:25.740Z,26.20
2018-12-12T15:57:54.359Z,26.00
2018-12-12T16:00:24.971Z,20.80
2018-12-12T16:02:53.930Z,23.50
2018-12-12T16:05:22.928Z,23.70
2018-12-12T16:07:52.044Z,21.30
2018-12-12T16:10:20.683Z,24.57
2018-12-12T16:12:49.647Z,25.20
2018-12-12T16:15:18.662Z,24.87
2018-12-12T16:17:47.571Z,20.63
2018-12-12T16:20:16.504Z,19.97
2018-12-12T16:22:45.569Z,26.43
2018-12-12T16:25:14.616Z,28.13
2018-12-12T16:27:43.357Z,21.67
2018-12-12T16:30:12.445Z,20.10
2018-12-12T16:32:41.519Z,25.83
2018-12-12T16:35:10.576Z,21.73
2018-12-12T16:37:49.832Z,21.10
2018-12-12T16:40:19.377Z,21.47
2018-12-12T16:42:48.637Z,24.87
2018-12-12T16:45:17.809Z,24.03
2018-12-12T16:47:47.867Z,21.57
2018-12-12T16:50:16.552Z,25.60
2018-12-12T16:52:45.233Z,22.03
2018-12-12T16:55:14.332Z,24.47
2018-12-12T16:57:43.452Z,21.73
2018-12-12T17:00:12.686Z,22.00
2018-12-12T17:02:42.133Z,24.33
2018-12-12T17:05:11.118Z,21.17
2018-12-12T17:07:40.892Z,27.53
2018-12-12T17:10:10.791Z,23.37
2018-12-12T17:12:40.576Z,20.77
2018-12-12T17:15:09.809Z,21.50
2018-12-12T17:17:38.857Z,21.77
2018-12-12T17:20:08.566Z,21.33
2018-12-12T17:22:37.247Z,23.00
2018-12-12T17:25:06.425Z,21.40
2018-12-12T17:27:35.556Z,22.73
2018-12-12T17:30:06.361Z,21.70
2018-12-12T17:32:35.531Z,22.63
2018-12-12T17:35:15.712Z,21.67
2018-12-12T17:37:44.414Z,21.13
2018-12-12T17:40:13.340Z,18.77
2018-12-12T17:42:42.360Z,21.37
2018-12-12T17:45:11.347Z,20.53
2018-12-12T17:47:40.411Z,19.20
2018-12-12T17:50:09.318Z,17.63
2018-12-12T17:52:38.253Z,16.43
2018-12-12T17:55:07.142Z,15.37
2018-12-12T17:57:36.705Z,14.43
2018-12-12T18:00:05.902Z,14.33
2018-12-12T18:02:35.049Z,14.73
2018-12-12T18:05:04.588Z,14.67
2018-12-12T18:07:33.658Z,11.30
2018-12-12T18:10:02.710Z,10.97
2018-12-12T18:12:31.479Z,12.10
2018-12-12T18:15:00.352Z,12.03
2018-12-12T18:17:29.349Z,13.67
2018-12-12T18:19:58.511Z,13.67
2018-12-12T18:22:27.232Z,9.77
2018-12-12T18:24:55.840Z,10.43
2018-12-12T18:27:24.911Z,9.03
2018-12-12T18:29:53.628Z,10.23
2018-12-12T18:32:22.826Z,7.73
2018-12-12T18:34:51.914Z,11.00
2018-12-12T18:37:21.040Z,7.07
2018-12-12T18:39:49.717Z,9.00
2018-12-12T18:42:18.616Z,9.23
2018-12-12T18:44:47.661Z,8.17
2018-12-12T18:47:16.349Z,7.67
2018-12-12T18:49:45.305Z,8.67
2018-12-12T18:52:14.302Z,8.13
2018-12-12T18:54:43.260Z,9.47
2018-12-12T18:57:12.000Z,7.13
2018-12-12T18:59:40.889Z,9.57
2018-12-12T19:02:10.053Z,8.67
2018-12-12T19:04:38.981Z,10.90
2018-12-12T19:07:10.489Z,9.00
2018-12-12T19:09:39.906Z,9.77
2018-12-12T19:12:10.041Z,11.87
2018-12-12T19:14:43.350Z,7.87
2018-12-12T19:17:12.054Z,9.43
2018-12-12T19:19:41.122Z,9.27
2018-12-12T19:22:10.512Z,7.90
2018-12-12T19:24:39.197Z,8.20
2018-12-12T19:27:08.132Z,8.77
2018-12-12T19:29:37.100Z,9.07
2018-12-12T19:32:06.267Z,8.77
2018-12-12T19:34:35.844Z,10.13
2018-12-12T19:37:04.945Z,9.93
2018-12-12T19:39:34.057Z,8.97
2018-12-12T19:42:03.060Z,10.43
2018-12-12T19:44:32.091Z,11.27
2018-12-12T19:47:00.855Z,7.93
2018-12-12T19:49:29.784Z,8.53
2018-12-12T19:51:59.716Z,8.10
2018-12-12T19:54:28.617Z,9.87
2018-12-12T19:56:59.646Z,8.40
2018-12-12T19:59:28.396Z,8.93
2018-12-12T20:01:57.537Z,9.43
2018-12-12T20:04:27.081Z,9.00
2018-12-12T20:06:56.221Z,9.33
2018-12-12T20:09:25.389Z,9.67
2018-12-12T20:11:54.454Z,7.90
2018-12-12T20:14:23.450Z,9.30
2018-12-12T20:16:52.672Z,10.47
2018-12-12T20:19:21.256Z,10.67
2018-12-12T20:21:49.988Z,9.87
2018-12-12T20:24:19.216Z,9.80
2018-12-12T20:26:48.173Z,12.40
2018-12-12T20:29:18.440Z,8.73
2018-12-12T20:31:47.404Z,10.23
2018-12-12T20:34:16.088Z,17.13
2018-12-12T20:36:44.965Z,12.00
2018-12-12T20:39:14.029Z,12.87
2018-12-12T20:41:42.767Z,8.70
2018-12-12T20:44:14.191Z,11.23
2018-12-12T20:46:43.356Z,13.53
2018-12-12T20:49:12.745Z,10.73
2018-12-12T20:51:42.067Z,10.83
2018-12-12T20:54:10.747Z,10.37
2018-12-12T20:56:39.994Z,9.23
2018-12-12T20:59:09.121Z,11.07
2018-12-12T21:01:38.273Z,10.33
2018-12-12T21:04:07.299Z,10.53
2018-12-12T21:06:36.056Z,14.53
2018-12-12T21:09:06.648Z,11.47
2018-12-12T21:11:35.660Z,10.93
2018-12-12T21:14:04.889Z,11.07
2018-12-12T21:16:33.950Z,12.23
2018-12-12T21:19:02.997Z,14.07
2018-12-12T21:21:32.054Z,11.90
2018-12-12T21:24:01.104Z,13.30
2018-12-12T21:26:30.225Z,10.60
2018-12-12T21:28:59.702Z,11.53
2018-12-12T21:31:28.667Z,14.10
2018-12-12T21:33:57.603Z,13.03
2018-12-12T21:36:27.191Z,16.73
2018-12-12T21:39:11.443Z,10.20
2018-12-12T21:41:40.563Z,13.37
2018-12-12T21:44:09.625Z,11.67
2018-12-12T21:46:40.333Z,12.67
2018-12-12T21:49:09.359Z,11.47
2018-12-12T21:51:38.410Z,12.67
2018-12-12T21:54:07.434Z,12.83
2018-12-12T21:56:36.489Z,13.30
2018-12-12T21:59:05.536Z,11.93
2018-12-12T22:01:34.224Z,13.60
2018-12-12T22:04:02.831Z,13.10
2018-12-12T22:06:32.041Z,13.20
2018-12-12T22:09:01.099Z,12.90
2018-12-12T22:11:30.431Z,12.57
2018-12-12T22:13:59.549Z,11.60
2018-12-12T22:16:28.504Z,12.13
2018-12-12T22:18:57.656Z,11.80
2018-12-12T22:21:26.664Z,12.53
2018-12-12T22:23:55.702Z,10.07
2018-12-12T22:26:25.197Z,12.13
2018-12-12T22:28:54.584Z,12.47
2018-12-12T22:31:23.508Z,11.40
2018-12-12T22:33:52.507Z,11.47
2018-12-12T22:36:21.516Z,10.93
2018-12-12T22:38:50.546Z,12.47
2018-12-12T22:41:19.857Z,12.43
2018-12-12T22:43:48.961Z,13.87
2018-12-12T22:46:17.977Z,9.60
2018-12-12T22:48:47.580Z,13.53
2018-12-12T22:51:16.699Z,9.97
2018-12-12T22:53:45.737Z,11.30
2018-12-12T22:56:14.417Z,10.67
2018-12-12T22:58:43.414Z,11.63
2018-12-12T23:01:16.830Z,10.63
2018-12-12T23:03:45.580Z,11.40
2018-12-12T23:06:20.206Z,13.17
2018-12-12T23:08:45.043Z,11.67
2018-12-12T23:11:15.528Z,11.23
2018-12-12T23:13:44.217Z,10.87
2018-12-12T23:16:13.409Z,13.63
2018-12-12T23:18:43.104Z,12.70
2018-12-12T23:21:12.412Z,11.63
2018-12-12T23:23:41.460Z,10.93
2018-12-12T23:26:10.468Z,10.00
2018-12-12T23:28:39.563Z,9.67
2018-12-12T23:31:08.712Z,10.60
2018-12-12T23:33:37.664Z,12.97
2018-12-12T23:36:06.780Z,13.03
2018-12-12T23:38:35.957Z,13.23
2018-12-12T23:41:05.281Z,11.37
2018-12-12T23:43:34.272Z,9.43
2018-12-12T23:46:05.442Z,11.40
2018-12-12T23:48:34.127Z,10.63
2018-12-12T23:51:03.151Z,12.03
2018-12-12T23:53:32.183Z,13.80
2018-12-12T23:56:01.232Z,11.97
2018-12-12T23:58:30.258Z,14.17
